createdAt,value
2019-04-07T00:00:22.257Z,8.9
2019-04-07T00:01:22.792Z,9.0
2019-04-07T00:02:23.483Z,9.0
2019-04-07T00:03:24.171Z,9.0
2019-04-07T00:04:25.466Z,9.0
2019-04-07T00:05:25.615Z,9.0
2019-04-07T00:06:26.745Z,9.0
2019-04-07T00:07:27.482Z,9.0
2019-04-07T00:08:28.205Z,9.1
2019-04-07T00:09:28.672Z,9.0
2019-04-07T00:10:29.337Z,9.0
2019-04-07T00:11:30.049Z,9.0
2019-04-07T00:12:31.015Z,8.9
2019-04-07T00:13:31.404Z,8.9
2019-04-07T00:14:32.091Z,9.0
2019-04-07T00:15:33.276Z,9.0
2019-04-07T00:16:33.463Z,9.0
2019-04-07T00:17:34.145Z,8.9
2019-04-07T00:18:34.832Z,9.0
2019-04-07T00:19:35.519Z,9.0
2019-04-07T00:20:36.356Z,9.1
2019-04-07T00:21:36.883Z,8.9
2019-04-07T00:22:38.034Z,9.1
2019-04-07T00:23:38.899Z,9.1
2019-04-07T00:24:39.310Z,9.1
2019-04-07T00:25:39.912Z,9.1
2019-04-07T00:26:40.574Z,9.1
2019-04-07T00:27:41.090Z,9.1
2019-04-07T00:28:42.133Z,9.0
2019-04-07T00:29:42.455Z,9.0
2019-04-07T00:30:43.145Z,9.1
2019-04-07T00:31:43.831Z,9.2
2019-04-07T00:32:44.510Z,9.1
2019-04-07T00:33:45.406Z,9.1
2019-04-07T00:34:45.882Z,9.1
2019-04-07T00:35:46.869Z,9.2
2019-04-07T00:36:47.250Z,9.2
2019-04-07T00:37:48.246Z,9.2
2019-04-07T00:38:48.920Z,9.1
2019-04-07T00:39:49.954Z,9.1
2019-04-07T00:40:50.297Z,9.2
2019-04-07T00:41:50.925Z,9.2
2019-04-07T00:42:51.582Z,9.2
2019-04-07T00:43:52.270Z,9.2
2019-04-07T00:44:53.273Z,9.2
2019-04-07T00:45:53.647Z,9.2
2019-04-07T00:46:54.323Z,9.2
2019-04-07T00:47:55.011Z,9.2
2019-04-07T00:48:56.247Z,9.1
2019-04-07T00:49:56.377Z,9.2
2019-04-07T00:50:57.069Z,9.2
2019-04-07T00:51:57.749Z,9.1
2019-04-07T00:52:59.035Z,9.1
2019-04-07T00:53:59.734Z,9.1
2019-04-07T00:54:59.826Z,9.1
2019-04-07T00:56:00.508Z,9.2
2019-04-07T00:57:01.203Z,9.1
2019-04-07T00:58:02.541Z,9.0
2019-04-07T00:59:02.780Z,9.1
2019-04-07T01:00:03.696Z,9.1
2019-04-07T01:01:04.254Z,9.1
2019-04-07T01:02:04.615Z,9.0
2019-04-07T01:03:05.305Z,9.0
2019-04-07T01:04:05.991Z,9.1
2019-04-07T01:05:07.251Z,9.1
2019-04-07T01:06:07.601Z,9.1
2019-04-07T01:07:08.157Z,9.0
2019-04-07T01:08:09.642Z,9.1
2019-04-07T01:09:09.665Z,9.1
2019-04-07T01:10:10.897Z,9.1
2019-04-07T01:11:11.323Z,9.1
2019-04-07T01:12:11.728Z,9.1
2019-04-07T01:13:12.423Z,9.1
2019-04-07T01:14:13.582Z,9.1
2019-04-07T01:15:14.048Z,9.2
2019-04-07T01:16:14.658Z,9.2
2019-04-07T01:17:15.735Z,9.2
2019-04-07T01:18:17.389Z,9.2
2019-04-07T01:19:17.862Z,9.1
2019-04-07T01:20:18.180Z,9.2
2019-04-07T01:21:19.184Z,9.2
2019-04-07T01:22:19.549Z,9.1
2019-04-07T01:23:20.905Z,9.1
2019-04-07T01:24:21.027Z,9.0
2019-04-07T01:25:21.599Z,9.1
2019-04-07T01:26:22.757Z,9.1
2019-04-07T01:27:23.541Z,9.0
2019-04-07T01:28:23.675Z,9.0
2019-04-07T01:29:24.502Z,9.0
2019-04-07T01:30:25.193Z,9.0
2019-04-07T01:31:25.725Z,8.9
2019-04-07T01:32:26.673Z,8.9
2019-04-07T01:33:27.624Z,8.9
2019-04-07T01:34:28.192Z,8.9
2019-04-07T01:35:28.851Z,8.7
2019-04-07T01:36:29.283Z,8.8
2019-04-07T01:37:29.829Z,8.8
2019-04-07T01:38:30.666Z,8.7
2019-04-07T01:39:31.513Z,8.8
2019-04-07T01:40:32.208Z,8.8
2019-04-07T01:41:32.938Z,8.9
2019-04-07T01:42:33.428Z,8.9
2019-04-07T01:43:33.988Z,8.9
2019-04-07T01:44:34.611Z,8.9
2019-04-07T01:45:35.294Z,8.8
2019-04-07T01:46:35.979Z,8.8
2019-04-07T01:47:36.998Z,8.8
2019-04-07T01:48:37.967Z,8.7
2019-04-07T01:49:38.045Z,8.7
2019-04-07T01:50:38.721Z,8.6
2019-04-07T01:51:39.954Z,8.7
2019-04-07T01:52:40.092Z,8.7
2019-04-07T01:53:40.830Z,8.6
2019-04-07T01:54:42.047Z,8.6
2019-04-07T01:55:42.193Z,8.8
2019-04-07T01:56:42.817Z,8.7
2019-04-07T01:57:43.505Z,8.8
2019-04-07T01:58:44.386Z,8.8
2019-04-07T01:59:45.449Z,8.8
2019-04-07T02:00:46.103Z,8.9
2019-04-07T02:01:46.790Z,8.8
2019-04-07T02:02:47.837Z,8.9
2019-04-07T02:03:48.421Z,8.7
2019-04-07T02:04:48.963Z,8.9
2019-04-07T02:05:58.557Z,8.9
2019-04-07T02:06:50.231Z,8.8
2019-04-07T02:07:51.277Z,8.7
2019-04-07T02:08:51.750Z,8.9
2019-04-07T02:09:52.336Z,8.7
2019-04-07T02:10:52.942Z,8.8
2019-04-07T02:11:53.974Z,8.9
2019-04-07T02:12:54.289Z,8.7
2019-04-07T02:13:54.968Z,8.7
2019-04-07T02:14:56.282Z,8.8
2019-04-07T02:15:56.913Z,8.8
2019-04-07T02:16:57.721Z,8.6
2019-04-07T02:17:58.198Z,8.7
2019-04-07T02:18:58.646Z,8.7
2019-04-07T02:19:59.061Z,8.8
2019-04-07T02:20:59.761Z,8.9
2019-04-07T02:22:00.436Z,8.8
2019-04-07T02:23:01.120Z,8.8
2019-04-07T02:24:02.574Z,8.7
2019-04-07T02:25:03.233Z,8.8
2019-04-07T02:26:04.020Z,8.7
2019-04-07T02:27:05.232Z,8.8
2019-04-07T02:28:05.393Z,8.8
2019-04-07T02:29:06.649Z,8.8
2019-04-07T02:30:07.650Z,8.7
2019-04-07T02:31:09.516Z,8.7
2019-04-07T02:32:09.861Z,8.7
2019-04-07T02:33:10.737Z,8.7
2019-04-07T02:34:11.669Z,8.6
2019-04-07T02:35:12.091Z,8.6
2019-04-07T02:36:20.998Z,8.7
2019-04-07T02:37:13.989Z,8.6
2019-04-07T02:38:16.117Z,8.6
2019-04-07T02:39:15.274Z,8.6
2019-04-07T02:40:15.527Z,8.5
2019-04-07T02:41:16.202Z,8.5
2019-04-07T02:42:17.106Z,8.5
2019-04-07T02:43:17.965Z,8.5
2019-04-07T02:44:18.261Z,8.5
2019-04-07T02:45:19.768Z,8.4
2019-04-07T02:46:20.353Z,8.5
2019-04-07T02:47:21.398Z,8.5
2019-04-07T02:48:20.988Z,8.4
2019-04-07T02:49:21.716Z,8.3
2019-04-07T02:50:22.367Z,8.3
2019-04-07T02:51:23.086Z,8.4
2019-04-07T02:52:23.743Z,8.4
2019-04-07T02:53:24.606Z,8.2
2019-04-07T02:54:25.108Z,8.3
2019-04-07T02:55:26.784Z,8.2
2019-04-07T02:56:26.914Z,8.3
2019-04-07T02:57:27.889Z,8.2
2019-04-07T02:58:27.846Z,8.3
2019-04-07T02:59:29.304Z,8.2
2019-04-07T03:00:29.733Z,8.4
2019-04-07T03:01:29.902Z,8.3
2019-04-07T03:02:31.623Z,8.2
2019-04-07T03:03:31.276Z,8.3
2019-04-07T03:04:32.759Z,8.3
2019-04-07T03:05:33.260Z,8.2
2019-04-07T03:06:43.216Z,8.3
2019-04-07T03:07:34.569Z,8.4
2019-04-07T03:08:35.604Z,8.3
2019-04-07T03:09:36.476Z,8.2
2019-04-07T03:10:36.632Z,8.3
2019-04-07T03:11:37.356Z,8.3
2019-04-07T03:12:37.426Z,8.2
2019-04-07T03:13:38.192Z,8.1
2019-04-07T03:14:39.246Z,8.1
2019-04-07T03:15:39.501Z,8.1
2019-04-07T03:16:40.581Z,8.1
2019-04-07T03:17:41.597Z,8.1
2019-04-07T03:18:42.492Z,8.1
2019-04-07T03:19:42.692Z,8.1
2019-04-07T03:20:43.456Z,8.1
2019-04-07T03:21:43.584Z,8.1
2019-04-07T03:22:44.338Z,8.2
2019-04-07T03:23:45.699Z,8.1
2019-04-07T03:24:45.659Z,8.1
2019-04-07T03:25:46.531Z,8.0
2019-04-07T03:26:47.758Z,8.0
2019-04-07T03:27:48.651Z,8.0
2019-04-07T03:28:49.195Z,7.9
2019-04-07T03:29:49.417Z,7.9
2019-04-07T03:30:51.898Z,7.9
2019-04-07T03:31:51.627Z,7.8
2019-04-07T03:32:54.056Z,7.9
2019-04-07T03:33:53.933Z,7.9
2019-04-07T03:34:54.097Z,8.0
2019-04-07T03:35:56.118Z,7.9
2019-04-07T03:37:21.691Z,7.8
2019-04-07T03:37:56.998Z,7.9
2019-04-07T03:38:56.513Z,8.0
2019-04-07T03:39:57.201Z,7.9
2019-04-07T03:40:57.891Z,7.8
2019-04-07T03:41:59.175Z,7.9
2019-04-07T03:42:59.388Z,7.8
2019-04-07T03:43:59.937Z,7.8
2019-04-07T03:45:00.794Z,7.7
2019-04-07T03:46:01.310Z,7.7
2019-04-07T03:47:02.006Z,7.7
2019-04-07T03:48:02.676Z,7.6
2019-04-07T03:49:04.001Z,7.6
2019-04-07T03:50:04.064Z,7.6
2019-04-07T03:51:04.729Z,7.6
2019-04-07T03:52:05.751Z,7.5
2019-04-07T03:53:06.181Z,7.5
2019-04-07T03:54:07.175Z,7.5
2019-04-07T03:55:07.464Z,7.6
2019-04-07T03:56:08.240Z,7.5
2019-04-07T03:57:08.972Z,7.6
2019-04-07T03:58:09.928Z,7.5
2019-04-07T03:59:10.935Z,7.5
2019-04-07T04:00:10.876Z,7.6
2019-04-07T04:01:11.552Z,7.6
2019-04-07T04:02:12.290Z,7.6
2019-04-07T04:03:12.989Z,7.5
2019-04-07T04:04:13.800Z,7.5
2019-04-07T04:05:14.722Z,7.5
2019-04-07T04:06:14.951Z,7.4
2019-04-07T04:07:25.643Z,7.5
2019-04-07T04:08:18.299Z,7.5
2019-04-07T04:09:17.886Z,7.5
2019-04-07T04:10:19.297Z,7.5
2019-04-07T04:11:20.237Z,7.4
2019-04-07T04:12:19.897Z,7.4
2019-04-07T04:13:20.588Z,7.4
2019-04-07T04:14:21.999Z,7.4
2019-04-07T04:15:22.229Z,7.3
2019-04-07T04:16:23.341Z,7.4
2019-04-07T04:17:23.326Z,7.3
2019-04-07T04:18:24.004Z,7.4
2019-04-07T04:19:24.997Z,7.3
2019-04-07T04:20:25.367Z,7.3
2019-04-07T04:21:26.050Z,7.4
2019-04-07T04:22:26.742Z,7.3
2019-04-07T04:23:28.466Z,7.4
2019-04-07T04:24:28.422Z,7.3
2019-04-07T04:25:30.258Z,7.4
2019-04-07T04:26:30.720Z,7.4
2019-04-07T04:27:31.468Z,7.4
2019-04-07T04:28:31.990Z,7.4
2019-04-07T04:29:33.236Z,7.5
2019-04-07T04:30:34.016Z,7.4
2019-04-07T04:31:34.035Z,7.4
2019-04-07T04:32:34.739Z,7.3
2019-04-07T04:33:35.422Z,7.3
2019-04-07T04:34:36.751Z,7.3
2019-04-07T04:35:37.495Z,7.4
2019-04-07T04:36:38.058Z,7.4
2019-04-07T04:37:44.381Z,7.3
2019-04-07T04:38:39.385Z,7.3
2019-04-07T04:39:41.026Z,7.3
2019-04-07T04:40:40.922Z,7.3
2019-04-07T04:41:42.453Z,7.2
2019-04-07T04:42:42.148Z,7.2
2019-04-07T04:43:42.798Z,7.2
2019-04-07T04:44:44.360Z,7.2
2019-04-07T04:45:44.893Z,7.4
2019-04-07T04:46:45.326Z,7.4
2019-04-07T04:47:46.356Z,7.3
2019-04-07T04:48:47.221Z,7.3
2019-04-07T04:49:46.895Z,7.4
2019-04-07T04:50:47.582Z,7.3
2019-04-07T04:51:48.602Z,7.3
2019-04-07T04:52:48.948Z,7.4
2019-04-07T04:53:50.392Z,7.4
2019-04-07T04:54:50.314Z,7.3
2019-04-07T04:55:51.494Z,7.3
2019-04-07T04:56:51.694Z,7.3
2019-04-07T04:57:52.370Z,7.4
2019-04-07T04:58:53.249Z,7.4
2019-04-07T04:59:54.042Z,7.3
2019-04-07T05:00:54.431Z,7.4
2019-04-07T05:01:55.401Z,7.3
2019-04-07T05:02:56.052Z,7.3
2019-04-07T05:03:56.679Z,7.2
2019-04-07T05:04:57.484Z,7.3
2019-04-07T05:05:58.815Z,7.3
2019-04-07T05:06:59.366Z,7.2
2019-04-07T05:08:03.609Z,7.2
2019-04-07T05:09:00.116Z,7.2
2019-04-07T05:10:01.180Z,7.3
2019-04-07T05:11:01.619Z,7.4
2019-04-07T05:12:04.775Z,7.4
2019-04-07T05:13:02.858Z,7.4
2019-04-07T05:14:03.773Z,7.3
2019-04-07T05:15:04.229Z,7.4
2019-04-07T05:16:05.018Z,7.4
2019-04-07T05:17:06.250Z,7.4
2019-04-07T05:18:06.461Z,7.4
2019-04-07T05:19:06.982Z,7.4
2019-04-07T05:20:08.048Z,7.3
2019-04-07T05:21:08.691Z,7.5
2019-04-07T05:22:09.354Z,7.4
2019-04-07T05:23:10.036Z,7.5
2019-04-07T05:24:11.479Z,7.5
2019-04-07T05:25:11.980Z,7.5
2019-04-07T05:26:12.094Z,7.6
2019-04-07T05:27:12.809Z,7.5
2019-04-07T05:28:13.943Z,7.4
2019-04-07T05:29:14.712Z,7.4
2019-04-07T05:30:15.594Z,7.4
2019-04-07T05:31:16.247Z,7.5
2019-04-07T05:32:16.950Z,7.4
2019-04-07T05:33:17.636Z,7.4
2019-04-07T05:34:20.504Z,7.4
2019-04-07T05:35:19.577Z,7.5
2019-04-07T05:36:20.269Z,7.5
2019-04-07T05:37:20.382Z,7.6
2019-04-07T05:38:21.279Z,7.6
2019-04-07T05:39:21.818Z,7.7
2019-04-07T05:40:22.442Z,7.7
2019-04-07T05:41:23.131Z,7.7
2019-04-07T05:42:24.623Z,7.8
2019-04-07T05:43:25.193Z,7.7
2019-04-07T05:44:25.239Z,7.7
2019-04-07T05:45:26.009Z,7.8
2019-04-07T05:46:28.294Z,7.8
2019-04-07T05:47:27.667Z,7.9
2019-04-07T05:48:28.329Z,7.9
2019-04-07T05:49:29.049Z,8.0
2019-04-07T05:50:29.743Z,8.0
2019-04-07T05:51:31.343Z,8.0
2019-04-07T05:52:33.487Z,8.1
2019-04-07T05:53:32.378Z,8.1
2019-04-07T05:54:32.860Z,8.1
2019-04-07T05:55:33.464Z,8.2
2019-04-07T05:56:33.910Z,8.2
2019-04-07T05:57:35.752Z,8.3
2019-04-07T05:58:38.379Z,8.3
2019-04-07T05:59:36.507Z,8.3
2019-04-07T06:00:37.175Z,8.3
2019-04-07T06:01:37.804Z,8.4
2019-04-07T06:02:38.493Z,8.3
2019-04-07T06:03:42.809Z,8.5
2019-04-07T06:04:40.409Z,8.5
2019-04-07T06:05:40.960Z,8.5
2019-04-07T06:06:42.027Z,8.5
2019-04-07T06:07:42.534Z,8.6
2019-04-07T06:08:42.651Z,8.7
2019-04-07T06:09:43.758Z,8.7
2019-04-07T06:10:44.542Z,8.8
2019-04-07T06:11:45.383Z,8.8
2019-04-07T06:12:47.932Z,8.9
2019-04-07T06:13:46.620Z,9.0
2019-04-07T06:14:47.651Z,9.0
2019-04-07T06:15:49.324Z,9.0
2019-04-07T06:16:51.881Z,9.2
2019-04-07T06:17:49.090Z,9.1
2019-04-07T06:18:50.079Z,9.2
2019-04-07T06:19:51.599Z,9.2
2019-04-07T06:20:50.836Z,9.3
2019-04-07T06:21:51.713Z,9.2
2019-04-07T06:22:53.579Z,9.3
2019-04-07T06:23:55.368Z,9.3
2019-04-07T06:24:53.814Z,9.4
2019-04-07T06:25:57.160Z,9.5
2019-04-07T06:26:54.949Z,9.6
2019-04-07T06:27:55.645Z,9.6
2019-04-07T06:28:58.751Z,9.7
2019-04-07T06:29:59.901Z,9.7
2019-04-07T06:31:00.239Z,9.7
2019-04-07T06:32:02.350Z,9.7
2019-04-07T06:32:59.085Z,9.7
2019-04-07T06:33:59.785Z,9.9
2019-04-07T06:35:00.587Z,9.9
2019-04-07T06:36:01.163Z,9.9
2019-04-07T06:37:02.435Z,10.0
2019-04-07T06:38:06.645Z,10.1
2019-04-07T06:39:03.631Z,10.1
2019-04-07T06:40:04.668Z,10.1
2019-04-07T06:41:04.600Z,10.3
2019-04-07T06:42:05.898Z,10.3
2019-04-07T06:43:06.346Z,10.4
2019-04-07T06:44:13.042Z,10.4
2019-04-07T06:45:07.361Z,10.5
2019-04-07T06:46:08.235Z,10.7
2019-04-07T06:47:08.740Z,10.8
2019-04-07T06:48:10.246Z,10.8
2019-04-07T06:49:11.664Z,10.9
2019-04-07T06:50:14.169Z,10.9
2019-04-07T06:51:11.499Z,11.0
2019-04-07T06:52:12.224Z,11.0
2019-04-07T06:53:17.552Z,11.1
2019-04-07T06:54:13.571Z,11.3
2019-04-07T06:55:14.662Z,11.3
2019-04-07T06:56:15.427Z,11.4
2019-04-07T06:57:15.638Z,11.5
2019-04-07T06:58:16.455Z,11.6
2019-04-07T06:59:17.664Z,11.7
2019-04-07T07:00:20.598Z,11.7
2019-04-07T07:01:19.014Z,11.8
2019-04-07T07:02:19.639Z,11.9
2019-04-07T07:03:19.776Z,11.9
2019-04-07T07:04:21.103Z,12.0
2019-04-07T07:05:21.329Z,12.1
2019-04-07T07:06:21.950Z,12.3
2019-04-07T07:07:22.688Z,12.3
2019-04-07T07:08:23.576Z,12.3
2019-04-07T07:09:26.448Z,12.5
2019-04-07T07:10:28.987Z,12.5
2019-04-07T07:11:29.303Z,12.6
2019-04-07T07:12:31.335Z,12.7
2019-04-07T07:13:32.394Z,12.9
2019-04-07T07:14:38.050Z,12.9
2019-04-07T07:15:28.341Z,13.1
2019-04-07T07:16:28.798Z,13.2
2019-04-07T07:17:29.450Z,13.2
2019-04-07T07:18:30.652Z,13.3
2019-04-07T07:19:31.531Z,13.4
2019-04-07T07:20:31.530Z,13.5
2019-04-07T07:21:36.203Z,13.5
2019-04-07T07:22:33.629Z,13.7
2019-04-07T07:23:33.605Z,13.8
2019-04-07T07:24:34.874Z,13.8
2019-04-07T07:25:35.002Z,13.9
2019-04-07T07:26:36.573Z,14.0
2019-04-07T07:27:38.766Z,14.2
2019-04-07T07:28:37.086Z,14.4
2019-04-07T07:29:37.789Z,14.5
2019-04-07T07:30:38.702Z,14.5
2019-04-07T07:31:39.240Z,14.8
2019-04-07T07:32:40.096Z,15.0
2019-04-07T07:33:42.640Z,15.2
2019-04-07T07:34:42.474Z,15.4
2019-04-07T07:35:43.927Z,15.6
2019-04-07T07:36:42.899Z,15.6
2019-04-07T07:37:43.564Z,15.6
2019-04-07T07:38:55.433Z,15.7
2019-04-07T07:39:45.796Z,15.7
2019-04-07T07:40:47.748Z,15.8
2019-04-07T07:41:46.331Z,15.9
2019-04-07T07:42:49.672Z,15.9
2019-04-07T07:43:48.194Z,16.2
2019-04-07T07:44:48.438Z,16.3
2019-04-07T07:45:49.163Z,16.2
2019-04-07T07:46:51.468Z,16.4
2019-04-07T07:47:53.263Z,16.4
2019-04-07T07:48:51.244Z,16.5
2019-04-07T07:49:52.040Z,16.6
2019-04-07T07:50:52.638Z,16.5
2019-04-07T07:51:53.330Z,16.6
2019-04-07T07:52:54.799Z,16.6
2019-04-07T07:53:57.176Z,16.7
2019-04-07T07:54:55.428Z,16.8
2019-04-07T07:55:56.518Z,16.8
2019-04-07T07:56:57.069Z,17.0
2019-04-07T07:57:59.194Z,17.2
2019-04-07T07:59:00.880Z,17.2
2019-04-07T08:00:00.273Z,17.3
2019-04-07T08:01:00.491Z,17.4
2019-04-07T08:02:00.272Z,17.3
2019-04-07T08:03:00.970Z,17.5
2019-04-07T08:04:01.911Z,17.6
2019-04-07T08:05:03.115Z,17.7
2019-04-07T08:06:06.356Z,17.8
2019-04-07T08:07:04.335Z,17.8
2019-04-07T08:08:04.770Z,17.9
2019-04-07T08:09:12.012Z,18.0
2019-04-07T08:10:05.814Z,18.1
2019-04-07T08:11:06.756Z,18.3
2019-04-07T08:12:07.319Z,18.3
2019-04-07T08:13:08.927Z,18.3
2019-04-07T08:14:08.837Z,18.5
2019-04-07T08:15:09.342Z,18.5
2019-04-07T08:16:10.890Z,18.6
2019-04-07T08:17:12.149Z,18.7
2019-04-07T08:18:11.461Z,18.7
2019-04-07T08:19:12.461Z,18.7
2019-04-07T08:20:13.084Z,18.7
2019-04-07T08:21:16.544Z,18.9
2019-04-07T08:22:26.647Z,18.9
2019-04-07T08:23:15.497Z,19.0
2019-04-07T08:24:18.516Z,18.9
2019-04-07T08:25:16.358Z,19.0
2019-04-07T08:26:16.989Z,19.0
2019-04-07T08:27:17.691Z,19.1
2019-04-07T08:28:19.765Z,19.2
2019-04-07T08:29:19.098Z,19.3
2019-04-07T08:30:19.904Z,19.4
2019-04-07T08:31:21.589Z,19.2
2019-04-07T08:32:24.268Z,19.3
2019-04-07T08:33:22.598Z,19.2
2019-04-07T08:34:23.165Z,19.4
2019-04-07T08:35:23.310Z,19.5
2019-04-07T08:36:23.958Z,19.5
2019-04-07T08:37:25.207Z,19.7
2019-04-07T08:38:27.117Z,19.7
2019-04-07T08:39:31.184Z,19.7
2019-04-07T08:40:27.379Z,19.6
2019-04-07T08:41:27.792Z,19.7
2019-04-07T08:42:28.137Z,19.8
2019-04-07T08:43:28.831Z,19.7
2019-04-07T08:44:30.556Z,19.7
2019-04-07T08:45:32.708Z,19.8
2019-04-07T08:46:32.277Z,20.0
2019-04-07T08:47:32.176Z,20.0
2019-04-07T08:48:32.320Z,20.2
2019-04-07T08:49:34.530Z,20.1
2019-04-07T08:50:34.269Z,20.1
2019-04-07T08:51:35.080Z,20.3
2019-04-07T08:52:38.453Z,20.4
2019-04-07T08:53:35.817Z,20.5
2019-04-07T08:54:36.854Z,20.4
2019-04-07T08:55:37.273Z,20.6
2019-04-07T08:56:38.720Z,20.8
2019-04-07T08:57:38.623Z,20.8
2019-04-07T08:58:40.152Z,20.9
2019-04-07T08:59:41.897Z,20.8
2019-04-07T09:00:41.567Z,20.9
2019-04-07T09:01:41.638Z,21.0
2019-04-07T09:02:42.730Z,21.0
2019-04-07T09:03:45.417Z,21.0
2019-04-07T09:04:46.583Z,21.1
2019-04-07T09:05:44.475Z,21.0
2019-04-07T09:06:44.992Z,21.0
2019-04-07T09:07:45.896Z,21.1
2019-04-07T09:08:46.286Z,21.1
2019-04-07T09:09:48.694Z,21.6
2019-04-07T09:10:49.607Z,21.5
2019-04-07T09:11:52.937Z,21.4
2019-04-07T09:12:49.869Z,21.5
2019-04-07T09:13:49.768Z,21.6
2019-04-07T09:14:51.367Z,21.7
2019-04-07T09:15:51.165Z,21.9
2019-04-07T09:16:54.797Z,21.8
2019-04-07T09:17:53.166Z,21.8
2019-04-07T09:19:00.601Z,21.8
2019-04-07T09:19:54.798Z,22.0
2019-04-07T09:20:54.655Z,22.2
2019-04-07T09:21:55.879Z,22.2
2019-04-07T09:22:57.001Z,22.1
2019-04-07T09:23:57.692Z,22.2
2019-04-07T09:24:57.855Z,22.4
2019-04-07T09:25:58.381Z,22.6
2019-04-07T09:26:58.882Z,22.7
2019-04-07T09:27:59.534Z,22.7
2019-04-07T09:29:00.806Z,22.7
2019-04-07T09:30:01.143Z,22.5
2019-04-07T09:31:03.611Z,22.3
2019-04-07T09:32:02.319Z,22.4
2019-04-07T09:33:03.353Z,22.4
2019-04-07T09:34:03.726Z,22.6
2019-04-07T09:35:07.044Z,22.4
2019-04-07T09:36:05.178Z,22.1
2019-04-07T09:37:05.848Z,22.2
2019-04-07T09:38:08.084Z,22.2
2019-04-07T09:39:07.824Z,22.5
2019-04-07T09:40:07.906Z,22.7
2019-04-07T09:41:08.610Z,22.7
2019-04-07T09:42:09.315Z,23.0
2019-04-07T09:43:10.086Z,23.1
2019-04-07T09:44:11.417Z,23.3
2019-04-07T09:45:12.682Z,23.3
2019-04-07T09:46:12.112Z,23.5
2019-04-07T09:47:15.804Z,23.5
2019-04-07T09:48:13.728Z,23.4
2019-04-07T09:49:14.804Z,23.1
2019-04-07T09:50:15.185Z,23.1
2019-04-07T09:51:16.471Z,23.1
2019-04-07T09:52:17.072Z,23.2
2019-04-07T09:53:19.403Z,23.3
2019-04-07T09:54:20.640Z,23.3
2019-04-07T09:55:19.052Z,23.3
2019-04-07T09:56:19.093Z,23.2
2019-04-07T09:57:20.101Z,23.4
2019-04-07T09:58:20.490Z,23.3
2019-04-07T09:59:21.186Z,23.0
2019-04-07T10:00:23.839Z,23.2
2019-04-07T10:01:23.386Z,23.3
2019-04-07T10:02:23.955Z,23.2
2019-04-07T10:03:23.978Z,23.4
2019-04-07T10:04:25.542Z,23.6
2019-04-07T10:05:25.351Z,23.3
2019-04-07T10:06:26.061Z,23.6
2019-04-07T10:07:26.757Z,23.7
2019-04-07T10:08:28.140Z,23.8
2019-04-07T10:09:28.375Z,24.0
2019-04-07T10:10:30.096Z,24.0
2019-04-07T10:11:30.246Z,24.3
2019-04-07T10:12:30.303Z,24.4
2019-04-07T10:13:31.771Z,24.2
2019-04-07T10:14:31.775Z,24.2
2019-04-07T10:15:32.830Z,24.0
2019-04-07T10:16:34.930Z,23.9
2019-04-07T10:17:34.062Z,23.6
2019-04-07T10:18:34.882Z,23.4
2019-04-07T10:19:35.230Z,23.6
2019-04-07T10:20:35.908Z,24.1
2019-04-07T10:21:36.947Z,24.2
2019-04-07T10:22:37.452Z,24.4
2019-04-07T10:23:38.618Z,24.1
2019-04-07T10:24:39.394Z,24.0
2019-04-07T10:25:40.291Z,24.1
2019-04-07T10:26:40.124Z,24.3
2019-04-07T10:27:40.830Z,24.2
2019-04-07T10:28:42.151Z,24.4
2019-04-07T10:29:42.808Z,24.7
2019-04-07T10:30:43.479Z,24.9
2019-04-07T10:31:44.210Z,25.0
2019-04-07T10:32:44.329Z,25.1
2019-04-07T10:33:45.041Z,25.2
2019-04-07T10:34:46.076Z,24.8
2019-04-07T10:35:46.790Z,24.5
2019-04-07T10:36:47.549Z,24.7
2019-04-07T10:37:50.141Z,24.7
2019-04-07T10:38:48.534Z,24.8
2019-04-07T10:39:49.405Z,24.6
2019-04-07T10:40:50.333Z,24.8
2019-04-07T10:41:50.770Z,24.7
2019-04-07T10:42:51.459Z,24.4
2019-04-07T10:43:52.599Z,24.6
2019-04-07T10:44:53.677Z,24.7
2019-04-07T10:45:53.809Z,24.2
2019-04-07T10:46:54.759Z,24.3
2019-04-07T10:47:55.197Z,24.3
2019-04-07T10:48:55.797Z,24.1
2019-04-07T10:50:01.506Z,24.4
2019-04-07T10:50:56.935Z,24.2
2019-04-07T10:51:58.020Z,24.4
2019-04-07T10:52:58.338Z,24.8
2019-04-07T10:53:59.041Z,24.9
2019-04-07T10:55:00.375Z,25.0
2019-04-07T10:56:01.096Z,24.9
2019-04-07T10:57:01.244Z,24.8
2019-04-07T10:58:01.912Z,24.9
2019-04-07T10:59:03.077Z,24.8
2019-04-07T11:00:03.478Z,24.9
2019-04-07T11:01:04.171Z,24.7
2019-04-07T11:02:04.841Z,24.9
2019-04-07T11:03:06.404Z,25.2
2019-04-07T11:04:07.124Z,25.3
2019-04-07T11:05:08.497Z,25.1
2019-04-07T11:06:08.670Z,25.0
2019-04-07T11:07:09.222Z,25.0
2019-04-07T11:08:10.532Z,25.0
2019-04-07T11:09:11.186Z,24.9
2019-04-07T11:10:11.539Z,24.8
2019-04-07T11:11:12.221Z,24.7
2019-04-07T11:12:12.792Z,24.9
2019-04-07T11:13:14.585Z,25.2
2019-04-07T11:14:14.194Z,25.4
2019-04-07T11:15:15.746Z,25.2
2019-04-07T11:16:15.595Z,25.1
2019-04-07T11:17:16.491Z,25.2
2019-04-07T11:18:17.466Z,24.6
2019-04-07T11:19:17.763Z,24.7
2019-04-07T11:20:18.430Z,24.9
2019-04-07T11:21:19.132Z,24.3
2019-04-07T11:22:19.921Z,24.5
2019-04-07T11:23:20.537Z,24.4
2019-04-07T11:24:22.035Z,24.5
2019-04-07T11:25:22.804Z,24.7
2019-04-07T11:26:23.556Z,25.0
2019-04-07T11:27:24.485Z,25.2
2019-04-07T11:28:27.394Z,25.4
2019-04-07T11:29:25.650Z,25.4
2019-04-07T11:30:27.241Z,25.3
2019-04-07T11:31:27.745Z,25.3
2019-04-07T11:32:28.833Z,25.7
2019-04-07T11:33:29.036Z,25.7
2019-04-07T11:34:30.392Z,25.5
2019-04-07T11:35:31.066Z,25.8
2019-04-07T11:36:31.064Z,25.7
2019-04-07T11:37:31.633Z,25.7
2019-04-07T11:38:32.346Z,25.3
2019-04-07T11:39:33.036Z,25.3
2019-04-07T11:40:43.387Z,25.3
2019-04-07T11:41:34.439Z,25.4
2019-04-07T11:42:35.139Z,25.3
2019-04-07T11:43:35.960Z,25.4
2019-04-07T11:44:36.541Z,25.7
2019-04-07T11:45:37.768Z,25.7
2019-04-07T11:46:37.950Z,25.9
2019-04-07T11:47:38.651Z,26.0
2019-04-07T11:48:39.466Z,25.5
2019-04-07T11:49:42.599Z,25.7
2019-04-07T11:50:40.756Z,25.9
2019-04-07T11:51:42.357Z,25.9
2019-04-07T11:52:42.291Z,25.5
2019-04-07T11:53:44.173Z,25.3
2019-04-07T11:54:43.868Z,25.5
2019-04-07T11:55:45.119Z,25.2
2019-04-07T11:56:45.944Z,25.2
2019-04-07T11:57:45.830Z,25.2
2019-04-07T11:58:46.538Z,25.3
2019-04-07T11:59:47.255Z,25.3
2019-04-07T12:00:48.840Z,25.7
2019-04-07T12:01:49.912Z,25.9
2019-04-07T12:02:51.845Z,25.8
2019-04-07T12:03:52.595Z,25.6
2019-04-07T12:04:51.002Z,25.0
2019-04-07T12:05:51.445Z,25.0
2019-04-07T12:06:52.598Z,25.3
2019-04-07T12:07:55.242Z,25.4
2019-04-07T12:08:53.583Z,25.3
2019-04-07T12:09:54.290Z,24.9
2019-04-07T12:11:01.736Z,25.3
2019-04-07T12:11:55.650Z,25.4
2019-04-07T12:12:57.006Z,25.4
2019-04-07T12:13:57.050Z,25.3
2019-04-07T12:14:57.824Z,25.6
2019-04-07T12:15:59.295Z,25.6
2019-04-07T12:17:02.332Z,25.1
2019-04-07T12:18:00.274Z,25.1
2019-04-07T12:19:00.682Z,25.0
2019-04-07T12:20:01.388Z,25.2
2019-04-07T12:21:04.260Z,25.1
2019-04-07T12:22:05.479Z,25.5
2019-04-07T12:23:03.710Z,25.9
2019-04-07T12:24:04.781Z,26.1
2019-04-07T12:25:05.771Z,26.2
2019-04-07T12:26:06.584Z,26.2
2019-04-07T12:27:06.760Z,26.4
2019-04-07T12:28:06.988Z,26.8
2019-04-07T12:29:07.991Z,26.7
2019-04-07T12:30:08.955Z,25.8
2019-04-07T12:31:10.206Z,25.7
2019-04-07T12:32:09.793Z,25.9
2019-04-07T12:33:11.456Z,25.9
2019-04-07T12:34:14.046Z,25.8
2019-04-07T12:35:11.960Z,25.8
2019-04-07T12:36:12.978Z,25.7
2019-04-07T12:37:14.329Z,25.7
2019-04-07T12:38:14.349Z,25.8
2019-04-07T12:39:17.344Z,25.9
2019-04-07T12:40:18.294Z,26.2
2019-04-07T12:41:21.037Z,26.0
2019-04-07T12:42:17.841Z,25.2
2019-04-07T12:43:18.565Z,25.0
2019-04-07T12:44:19.111Z,25.4
2019-04-07T12:45:19.392Z,25.7
2019-04-07T12:46:21.015Z,26.1
2019-04-07T12:47:20.736Z,26.2
2019-04-07T12:48:21.443Z,26.4
2019-04-07T12:49:22.147Z,26.2
2019-04-07T12:50:22.848Z,26.2
2019-04-07T12:51:23.611Z,26.1
2019-04-07T12:52:28.044Z,25.7
2019-04-07T12:53:25.162Z,26.0
2019-04-07T12:54:25.664Z,26.2
2019-04-07T12:55:26.449Z,26.4
2019-04-07T12:56:31.689Z,26.5
2019-04-07T12:57:28.758Z,26.6
2019-04-07T12:58:28.461Z,26.5
2019-04-07T12:59:29.375Z,26.2
2019-04-07T13:00:29.879Z,25.9
2019-04-07T13:01:30.570Z,25.7
2019-04-07T13:02:31.783Z,25.7
2019-04-07T13:03:31.978Z,25.7
2019-04-07T13:04:32.676Z,25.7
2019-04-07T13:05:35.492Z,25.5
2019-04-07T13:06:34.087Z,25.3
2019-04-07T13:07:37.437Z,25.3
2019-04-07T13:08:35.489Z,25.3
2019-04-07T13:09:36.599Z,25.5
2019-04-07T13:10:38.249Z,25.3
2019-04-07T13:11:42.719Z,25.3
2019-04-07T13:12:38.762Z,24.8
2019-04-07T13:13:39.010Z,24.6
2019-04-07T13:14:40.985Z,24.6
2019-04-07T13:15:45.547Z,24.7
2019-04-07T13:16:41.101Z,24.9
2019-04-07T13:17:42.150Z,24.6
2019-04-07T13:18:42.536Z,24.7
2019-04-07T13:19:46.723Z,24.6
2019-04-07T13:20:44.171Z,24.3
2019-04-07T13:21:46.052Z,24.2
2019-04-07T13:22:45.577Z,24.0
2019-04-07T13:23:46.059Z,24.2
2019-04-07T13:24:48.528Z,24.1
2019-04-07T13:25:47.463Z,24.1
2019-04-07T13:26:48.786Z,24.2
2019-04-07T13:27:48.806Z,24.3
2019-04-07T13:28:50.036Z,24.3
2019-04-07T13:29:50.205Z,24.4
2019-04-07T13:30:50.912Z,24.4
2019-04-07T13:31:51.616Z,24.5
2019-04-07T13:32:55.471Z,24.6
2019-04-07T13:33:54.376Z,24.8
2019-04-07T13:34:54.687Z,24.6
2019-04-07T13:35:56.267Z,24.6
2019-04-07T13:36:56.292Z,24.6
2019-04-07T13:37:56.963Z,24.6
2019-04-07T13:38:57.865Z,24.8
2019-04-07T13:39:58.890Z,25.0
2019-04-07T13:40:59.494Z,24.6